createdAt,value
2022-12-09T00:01:52.407Z,2.40
2022-12-09T00:04:21.086Z,3.00
2022-12-09T00:06:49.528Z,1.00
2022-12-09T00:09:18.182Z,2.23
2022-12-09T00:11:48.128Z,1.50
2022-12-09T00:14:16.585Z,0.90
2022-12-09T00:16:44.921Z,2.70
2022-12-09T00:19:13.443Z,5.33
2022-12-09T00:21:42.454Z,2.10
2022-12-09T00:24:12.859Z,2.60
2022-12-09T00:26:41.543Z,6.53
2022-12-09T00:29:11.857Z,12.57
2022-12-09T00:31:41.148Z,5.87
2022-12-09T00:34:10.482Z,4.67
2022-12-09T00:36:38.885Z,1.20
2022-12-09T00:39:07.298Z,2.47
2022-12-09T00:41:35.760Z,1.30
2022-12-09T00:44:04.254Z,2.90
2022-12-09T00:46:34.117Z,1.20
2022-12-09T00:49:02.516Z,13.53
2022-12-09T00:51:31.012Z,3.40
2022-12-09T00:53:59.594Z,2.00
2022-12-09T00:56:29.183Z,2.33
2022-12-09T00:58:57.617Z,6.73
2022-12-09T01:01:26.007Z,3.43
2022-12-09T01:03:56.086Z,3.80
2022-12-09T01:06:26.318Z,3.17
2022-12-09T01:08:55.146Z,4.40
2022-12-09T01:11:24.596Z,2.67
2022-12-09T01:13:53.568Z,2.77
2022-12-09T01:16:23.248Z,10.10
2022-12-09T01:18:52.391Z,3.30
2022-12-09T01:21:22.204Z,8.20
2022-12-09T01:23:50.871Z,4.57
2022-12-09T01:26:19.246Z,2.37
2022-12-09T01:28:51.270Z,3.10
2022-12-09T01:31:20.903Z,1.87
2022-12-09T01:33:49.309Z,5.70
2022-12-09T01:36:18.866Z,4.73
2022-12-09T01:38:49.166Z,4.03
2022-12-09T01:41:18.672Z,3.10
2022-12-09T01:43:47.258Z,4.23
2022-12-09T01:46:15.771Z,2.40
2022-12-09T01:48:45.428Z,6.50
2022-12-09T01:51:14.890Z,9.67
2022-12-09T01:53:44.602Z,8.73
2022-12-09T01:56:17.074Z,5.60
2022-12-09T01:58:46.214Z,3.93
2022-12-09T02:01:14.569Z,14.13
2022-12-09T02:03:42.944Z,10.87
2022-12-09T02:06:11.500Z,7.97
2022-12-09T02:08:40.236Z,16.80
2022-12-09T02:11:11.403Z,4.13
2022-12-09T02:13:44.530Z,3.57
2022-12-09T02:16:17.168Z,4.07
2022-12-09T02:18:48.945Z,8.13
2022-12-09T02:21:19.167Z,1.20
2022-12-09T02:23:50.423Z,8.63
2022-12-09T02:26:23.714Z,1.00
2022-12-09T02:29:13.076Z,1.00
2022-12-09T02:31:51.276Z,1.63
2022-12-09T02:34:22.223Z,1.10
2022-12-09T02:36:55.812Z,1.00
2022-12-09T02:39:26.586Z,0.97
2022-12-09T02:41:56.573Z,1.37
2022-12-09T02:44:25.848Z,0.90
2022-12-09T02:46:54.600Z,7.40
2022-12-09T02:49:24.562Z,1.57
2022-12-09T02:51:53.241Z,1.00
2022-12-09T02:54:22.358Z,1.33
2022-12-09T02:56:53.498Z,1.00
2022-12-09T02:59:22.173Z,0.90
2022-12-09T03:01:53.095Z,0.80
2022-12-09T03:04:22.882Z,1.37
2022-12-09T03:06:54.855Z,1.33
2022-12-09T03:09:25.895Z,0.90
2022-12-09T03:11:54.700Z,1.90
2022-12-09T03:14:24.796Z,2.33
2022-12-09T03:16:56.172Z,0.80
2022-12-09T03:19:27.266Z,1.30
2022-12-09T03:21:58.655Z,2.40
2022-12-09T03:24:30.130Z,1.33
2022-12-09T03:26:59.978Z,1.07
2022-12-09T03:29:28.807Z,6.03
2022-12-09T03:31:58.797Z,5.77
2022-12-09T03:34:30.395Z,8.67
2022-12-09T03:37:00.659Z,8.27
2022-12-09T03:39:31.641Z,7.77
2022-12-09T03:42:03.611Z,8.67
2022-12-09T03:44:34.263Z,5.87
2022-12-09T03:47:02.758Z,4.23
2022-12-09T03:49:31.109Z,12.70
2022-12-09T03:52:03.768Z,6.97
2022-12-09T03:54:34.780Z,8.63
2022-12-09T03:57:03.539Z,13.13
2022-12-09T03:59:34.869Z,6.90
2022-12-09T04:02:05.043Z,12.67
2022-12-09T04:04:33.385Z,5.50
2022-12-09T04:07:03.284Z,4.33
2022-12-09T04:09:31.651Z,1.43
2022-12-09T04:11:59.949Z,1.07
2022-12-09T04:14:28.298Z,1.67
2022-12-09T04:16:56.925Z,4.60
2022-12-09T04:19:25.338Z,20.30
2022-12-09T04:21:53.806Z,27.73
2022-12-09T04:24:23.504Z,16.57
2022-12-09T04:26:52.155Z,24.13
2022-12-09T04:29:20.619Z,8.80
2022-12-09T04:31:48.992Z,6.27
2022-12-09T04:34:17.476Z,14.53
2022-12-09T04:36:46.156Z,28.73
2022-12-09T04:39:14.546Z,49.07
2022-12-09T04:41:44.187Z,262.97
2022-12-09T04:44:12.842Z,305.40
2022-12-09T04:46:41.332Z,155.23
2022-12-09T04:49:10.123Z,355.37
2022-12-09T04:51:40.153Z,118.07
2022-12-09T04:54:09.556Z,36.23
2022-12-09T04:56:38.241Z,249.87
2022-12-09T04:59:07.993Z,335.27
2022-12-09T05:01:36.555Z,32.77
2022-12-09T05:04:06.487Z,35.10
2022-12-09T05:06:35.293Z,316.63
2022-12-09T05:09:04.265Z,244.80
2022-12-09T05:11:33.042Z,239.97
2022-12-09T05:14:01.794Z,213.27
2022-12-09T05:16:31.792Z,345.87
2022-12-09T05:19:01.577Z,217.20
2022-12-09T05:21:30.043Z,94.67
2022-12-09T05:23:58.934Z,135.97
2022-12-09T05:26:27.752Z,3.60
2022-12-09T05:28:56.138Z,107.30
2022-12-09T05:31:25.224Z,48.87
2022-12-09T05:33:55.548Z,323.10
2022-12-09T05:36:25.388Z,100.67
2022-12-09T05:38:54.180Z,39.33
2022-12-09T05:41:22.950Z,61.03
2022-12-09T05:43:51.912Z,213.17
2022-12-09T05:46:20.765Z,319.87
2022-12-09T05:48:49.300Z,167.17
2022-12-09T05:51:25.451Z,19.33
2022-12-09T05:53:55.049Z,348.37
2022-12-09T05:56:24.715Z,296.23
2022-12-09T05:58:54.024Z,265.73
2022-12-09T06:01:23.046Z,154.53
2022-12-09T06:03:53.016Z,360.30
2022-12-09T06:06:24.131Z,231.00
2022-12-09T06:08:56.654Z,147.53
2022-12-09T06:11:26.133Z,8.23
2022-12-09T06:13:55.499Z,119.57
2022-12-09T06:16:24.277Z,155.70
2022-12-09T06:18:52.895Z,106.80
2022-12-09T06:21:23.072Z,194.07
2022-12-09T06:23:52.232Z,62.43
2022-12-09T06:26:22.268Z,188.33
2022-12-09T06:28:50.911Z,85.50
2022-12-09T06:31:19.778Z,276.77
2022-12-09T06:33:57.627Z,268.70
2022-12-09T06:36:28.407Z,191.87
2022-12-09T06:38:58.810Z,4.97
2022-12-09T06:41:29.428Z,127.93
2022-12-09T06:43:58.905Z,341.03
2022-12-09T06:46:28.173Z,244.20
2022-12-09T06:48:58.550Z,123.70
2022-12-09T06:51:28.783Z,4.93
2022-12-09T06:53:57.450Z,79.00
2022-12-09T06:56:26.232Z,239.90
2022-12-09T06:58:54.874Z,80.23
2022-12-09T07:01:24.245Z,211.90
2022-12-09T07:03:54.229Z,84.13
2022-12-09T07:06:28.028Z,353.50
2022-12-09T07:09:00.794Z,103.93
2022-12-09T07:11:30.158Z,126.30
2022-12-09T07:13:58.943Z,297.93
2022-12-09T07:16:27.790Z,180.07
2022-12-09T07:18:56.463Z,238.23
2022-12-09T07:21:25.656Z,57.97
2022-12-09T07:23:54.098Z,201.10
2022-12-09T07:26:24.269Z,75.30
2022-12-09T07:28:52.631Z,233.00
2022-12-09T07:31:22.405Z,14.83
2022-12-09T07:33:51.802Z,215.47
2022-12-09T07:36:22.193Z,101.30
2022-12-09T07:38:51.083Z,212.33
2022-12-09T07:41:19.820Z,157.70
2022-12-09T07:43:50.408Z,73.53
2022-12-09T07:46:19.912Z,24.03
2022-12-09T07:48:49.290Z,65.90
2022-12-09T07:51:18.630Z,94.87
2022-12-09T07:53:48.044Z,4.83
2022-12-09T07:56:17.688Z,49.93
2022-12-09T07:58:48.089Z,62.93
2022-12-09T08:01:19.661Z,3.83
2022-12-09T08:03:49.023Z,40.53
2022-12-09T08:06:19.546Z,6.37
2022-12-09T08:08:48.596Z,8.60
2022-12-09T08:11:18.383Z,5.90
2022-12-09T08:13:47.557Z,49.07
2022-12-09T08:16:16.961Z,43.97
2022-12-09T08:18:49.610Z,9.73
2022-12-09T08:21:19.701Z,51.23
2022-12-09T08:23:48.692Z,14.07
2022-12-09T08:26:17.762Z,27.00
2022-12-09T08:28:46.345Z,43.93
2022-12-09T08:31:16.826Z,27.10
2022-12-09T08:33:47.411Z,52.40
2022-12-09T08:36:17.335Z,3.90
2022-12-09T08:38:46.229Z,25.20
2022-12-09T08:41:16.170Z,10.93
2022-12-09T08:43:46.406Z,49.57
2022-12-09T08:46:15.456Z,13.25
2022-12-09T08:48:44.767Z,22.93
2022-12-09T08:51:14.679Z,5.83
2022-12-09T08:53:43.022Z,20.97
2022-12-09T08:56:12.944Z,4.97
2022-12-09T08:58:42.257Z,6.47
2022-12-09T09:01:16.504Z,2.23
2022-12-09T09:03:46.013Z,18.03
2022-12-09T09:06:16.557Z,26.90
2022-12-09T09:08:45.922Z,2.23
2022-12-09T09:11:16.910Z,1.83
2022-12-09T09:13:46.965Z,56.53
2022-12-09T09:16:16.710Z,25.03
2022-12-09T09:18:45.992Z,28.57
2022-12-09T09:21:18.464Z,14.57
2022-12-09T09:23:48.053Z,12.83
2022-12-09T09:26:18.542Z,40.37
2022-12-09T09:28:47.460Z,44.93
2022-12-09T09:31:17.530Z,4.27
2022-12-09T09:33:46.361Z,7.23
2022-12-09T09:36:20.804Z,56.87
2022-12-09T09:38:50.002Z,61.97
2022-12-09T09:41:22.557Z,11.97
2022-12-09T09:43:51.814Z,14.07
2022-12-09T09:46:22.502Z,3.87
2022-12-09T09:48:52.034Z,4.70
2022-12-09T09:51:26.042Z,36.57
2022-12-09T09:53:55.579Z,12.93
2022-12-09T09:56:29.276Z,6.97
2022-12-09T09:59:14.523Z,6.23
2022-12-09T10:01:43.925Z,33.03
2022-12-09T10:04:16.668Z,31.47
2022-12-09T10:06:49.846Z,33.73
2022-12-09T10:09:22.037Z,6.97
2022-12-09T10:11:59.612Z,33.80
2022-12-09T10:14:39.041Z,38.73
2022-12-09T10:17:12.750Z,42.40
2022-12-09T10:19:43.797Z,45.17
2022-12-09T10:22:15.604Z,35.87
2022-12-09T10:24:47.904Z,50.47
2022-12-09T10:27:21.847Z,11.13
2022-12-09T10:29:56.053Z,35.30
2022-12-09T10:32:26.819Z,19.57
2022-12-09T10:34:57.092Z,34.67
2022-12-09T10:37:33.867Z,33.07
2022-12-09T10:40:16.548Z,47.03
2022-12-09T10:43:04.689Z,5.00
2022-12-09T10:46:07.948Z,3.53
2022-12-09T10:48:25.602Z,22.43
2022-12-09T10:51:03.424Z,5.13
2022-12-09T10:53:35.306Z,3.63
2022-12-09T10:56:04.999Z,4.80
2022-12-09T10:58:33.972Z,17.57
2022-12-09T11:01:04.494Z,4.57
2022-12-09T11:03:34.410Z,2.20
2022-12-09T11:06:13.425Z,6.40
2022-12-09T11:09:05.713Z,6.80
2022-12-09T11:11:42.862Z,39.20
2022-12-09T11:14:24.033Z,30.77
2022-12-09T11:16:54.639Z,23.37
2022-12-09T11:19:34.076Z,21.57
2022-12-09T11:22:21.411Z,26.10
2022-12-09T11:24:53.922Z,25.80
2022-12-09T11:27:28.191Z,38.83
2022-12-09T11:30:20.612Z,23.40
2022-12-09T11:32:59.815Z,34.90
2022-12-09T11:35:31.424Z,29.63
2022-12-09T11:38:02.388Z,38.47
2022-12-09T11:40:33.272Z,35.13
2022-12-09T11:43:01.744Z,19.13
2022-12-09T11:45:32.480Z,26.00
2022-12-09T11:48:27.937Z,37.87
2022-12-09T11:50:55.452Z,23.80
2022-12-09T11:53:27.396Z,24.70
2022-12-09T11:56:09.220Z,16.30
2022-12-09T11:58:40.763Z,41.43
2022-12-09T12:01:13.588Z,37.17
2022-12-09T12:03:44.891Z,38.03
2022-12-09T12:06:17.735Z,36.87
2022-12-09T12:08:53.930Z,34.60
2022-12-09T12:11:27.265Z,27.43
2022-12-09T12:13:58.916Z,41.10
2022-12-09T12:16:37.658Z,33.13
2022-12-09T12:19:11.500Z,33.00
2022-12-09T12:21:48.260Z,38.13
2022-12-09T12:24:28.579Z,30.90
2022-12-09T12:27:04.300Z,41.63
2022-12-09T12:29:38.210Z,2.70
2022-12-09T12:32:25.422Z,23.40
2022-12-09T12:35:00.524Z,40.27
2022-12-09T12:37:46.712Z,8.83
2022-12-09T12:40:26.576Z,35.97
2022-12-09T12:43:19.852Z,31.77
2022-12-09T12:46:08.947Z,30.10
2022-12-09T12:48:45.107Z,28.87
2022-12-09T12:51:19.376Z,27.23
2022-12-09T12:53:53.589Z,31.10
2022-12-09T12:56:31.276Z,39.80
2022-12-09T12:59:06.647Z,28.83
2022-12-09T13:01:36.235Z,33.50
2022-12-09T13:04:09.775Z,37.27
2022-12-09T13:06:43.258Z,37.30
2022-12-09T13:09:16.191Z,30.07
2022-12-09T13:11:50.962Z,31.27
2022-12-09T13:14:22.697Z,37.87
2022-12-09T13:16:51.462Z,38.80
2022-12-09T13:19:22.376Z,28.87
2022-12-09T13:21:50.946Z,31.73
2022-12-09T13:24:27.861Z,41.73
2022-12-09T13:27:01.776Z,38.40
2022-12-09T13:29:36.742Z,39.47
2022-12-09T13:32:15.908Z,31.53
2022-12-09T13:34:46.861Z,33.67
2022-12-09T13:37:40.795Z,29.37
2022-12-09T13:40:30.765Z,38.20
2022-12-09T13:43:06.932Z,36.53
2022-12-09T13:45:52.579Z,31.67
2022-12-09T13:48:45.298Z,24.97
2022-12-09T13:51:14.663Z,38.40
2022-12-09T13:53:49.187Z,42.83
2022-12-09T13:56:24.081Z,35.07
2022-12-09T13:59:06.424Z,36.70
2022-12-09T14:01:38.007Z,25.87
2022-12-09T14:04:13.192Z,36.73
2022-12-09T14:06:49.941Z,32.57
2022-12-09T14:09:24.310Z,31.33
2022-12-09T14:11:53.319Z,33.27
2022-12-09T14:14:55.131Z,36.63
2022-12-09T14:17:42.620Z,31.13
2022-12-09T14:20:21.324Z,29.67
2022-12-09T14:23:08.532Z,30.07
2022-12-09T14:25:51.461Z,35.03
2022-12-09T14:28:27.799Z,36.37
2022-12-09T14:31:10.958Z,39.73
2022-12-09T14:33:41.186Z,40.63
2022-12-09T14:36:23.807Z,42.37
2022-12-09T14:41:48.703Z,15.33
2022-12-09T14:44:21.905Z,30.47
2022-12-09T14:46:54.385Z,35.27
2022-12-09T14:49:26.472Z,39.23
2022-12-09T14:52:01.611Z,16.20
2022-12-09T14:54:32.008Z,25.73
2022-12-09T14:57:01.880Z,27.00
2022-12-09T14:59:31.572Z,30.90
2022-12-09T15:02:01.412Z,36.33
2022-12-09T15:04:34.172Z,38.90
2022-12-09T15:07:11.469Z,35.07
2022-12-09T15:09:40.358Z,44.53
2022-12-09T15:12:12.346Z,43.73
2022-12-09T15:14:41.147Z,40.70
2022-12-09T15:17:09.956Z,29.27
2022-12-09T15:22:32.106Z,45.73
2022-12-09T15:25:02.434Z,40.53
2022-12-09T15:27:31.594Z,41.87
2022-12-09T15:30:01.484Z,48.37
2022-12-09T15:32:31.198Z,41.27
2022-12-09T15:35:14.459Z,33.97
2022-12-09T15:37:44.449Z,44.77
2022-12-09T15:40:15.113Z,52.30
2022-12-09T15:42:45.992Z,57.57
2022-12-09T15:45:15.686Z,66.20
2022-12-09T15:47:47.059Z,53.75
2022-12-09T15:50:18.553Z,55.97
2022-12-09T15:52:52.314Z,49.30
2022-12-09T15:55:22.196Z,53.77
2022-12-09T15:57:52.092Z,50.23
2022-12-09T16:00:20.809Z,36.83
2022-12-09T16:02:50.188Z,48.73
2022-12-09T16:05:23.550Z,51.53
2022-12-09T16:08:01.058Z,55.03
2022-12-09T16:10:30.072Z,51.50
2022-12-09T16:13:09.201Z,52.33
2022-12-09T16:15:50.815Z,59.67
2022-12-09T16:18:21.433Z,78.27
2022-12-09T16:21:00.988Z,72.37
2022-12-09T16:23:30.924Z,13.43
2022-12-09T16:26:06.734Z,71.47
2022-12-09T16:28:36.236Z,101.40
2022-12-09T16:31:17.801Z,111.97
2022-12-09T16:33:49.066Z,162.73
2022-12-09T16:36:19.479Z,391.37
2022-12-09T16:39:02.364Z,433.80
2022-12-09T16:42:24.209Z,428.17
2022-12-09T16:44:52.719Z,564.90
2022-12-09T16:47:26.559Z,356.03
2022-12-09T16:49:55.179Z,156.70
2022-12-09T16:52:25.903Z,353.27
2022-12-09T16:54:57.068Z,376.80
2022-12-09T16:57:25.512Z,370.50
2022-12-09T16:59:54.101Z,526.23
2022-12-09T17:02:29.306Z,417.77
2022-12-09T17:04:57.826Z,455.20
2022-12-09T17:07:26.298Z,501.07
2022-12-09T17:09:54.843Z,97.47
2022-12-09T17:12:24.772Z,357.60
2022-12-09T17:14:53.383Z,444.27
2022-12-09T17:17:22.065Z,456.93
2022-12-09T17:19:52.573Z,361.47
2022-12-09T17:22:23.858Z,369.17
2022-12-09T17:24:52.580Z,468.30
2022-12-09T17:27:21.110Z,369.10
2022-12-09T17:29:50.972Z,433.10
2022-12-09T17:32:19.710Z,550.87
2022-12-09T17:34:50.449Z,383.07
2022-12-09T17:37:18.961Z,460.13
2022-12-09T17:39:54.629Z,449.57
2022-12-09T17:42:25.624Z,423.53
2022-12-09T17:44:55.408Z,460.97
2022-12-09T17:47:25.335Z,397.00
2022-12-09T17:49:57.534Z,395.50
2022-12-09T17:52:26.152Z,375.30
2022-12-09T17:54:54.702Z,399.50
2022-12-09T17:57:23.253Z,437.70
2022-12-09T17:59:51.691Z,423.00
2022-12-09T18:02:21.758Z,456.13
2022-12-09T18:04:50.731Z,477.77
2022-12-09T18:07:19.240Z,405.50
2022-12-09T18:09:54.219Z,353.67
2022-12-09T18:12:23.319Z,302.27
2022-12-09T18:14:51.793Z,287.03
2022-12-09T18:17:21.576Z,36.77
2022-12-09T18:19:49.896Z,160.93
2022-12-09T18:22:19.765Z,466.53
2022-12-09T18:24:48.134Z,341.37
2022-12-09T18:27:16.596Z,386.10
2022-12-09T18:29:44.981Z,406.33
2022-12-09T18:32:13.346Z,474.90
2022-12-09T18:34:43.189Z,389.73
2022-12-09T18:37:11.926Z,424.73
2022-12-09T18:39:40.277Z,439.23
2022-12-09T18:42:09.134Z,393.50
2022-12-09T18:44:37.555Z,198.60
2022-12-09T18:47:05.993Z,258.60
2022-12-09T18:49:34.439Z,288.23
2022-12-09T18:52:04.566Z,247.37
2022-12-09T18:54:33.616Z,187.47
2022-12-09T18:57:03.831Z,51.40
2022-12-09T18:59:32.412Z,141.50
2022-12-09T19:02:00.794Z,55.87
2022-12-09T19:04:30.886Z,63.53
2022-12-09T19:07:00.027Z,160.57
2022-12-09T19:09:33.287Z,156.00
2022-12-09T19:12:22.950Z,128.50
2022-12-09T19:14:50.376Z,144.50
2022-12-09T19:17:19.086Z,90.47
2022-12-09T19:19:48.213Z,311.07
2022-12-09T19:22:16.742Z,229.00
2022-12-09T19:24:46.455Z,220.20
2022-12-09T19:27:14.819Z,337.67
2022-12-09T19:29:43.104Z,194.83
2022-12-09T19:32:36.553Z,186.60
2022-12-09T19:34:59.744Z,251.13
2022-12-09T19:37:28.034Z,232.60
2022-12-09T19:39:57.714Z,343.83
2022-12-09T19:42:26.013Z,234.27
2022-12-09T19:45:03.122Z,276.90
2022-12-09T19:47:32.846Z,282.03
2022-12-09T19:50:01.186Z,82.43
2022-12-09T19:52:29.511Z,293.83
2022-12-09T19:54:59.173Z,232.07
2022-12-09T19:57:27.534Z,110.03
2022-12-09T19:59:55.877Z,340.53
2022-12-09T20:02:24.272Z,211.30
2022-12-09T20:04:52.651Z,189.37
2022-12-09T20:07:21.472Z,250.43
2022-12-09T20:09:50.128Z,174.80
2022-12-09T20:12:19.933Z,190.70
2022-12-09T20:14:48.236Z,160.13
2022-12-09T20:17:17.343Z,161.87
2022-12-09T20:19:45.612Z,226.43
2022-12-09T20:22:13.992Z,158.33
2022-12-09T20:24:43.192Z,226.57
2022-12-09T20:27:11.546Z,256.13
2022-12-09T20:29:41.347Z,207.33
2022-12-09T20:32:10.345Z,171.60
2022-12-09T20:34:38.934Z,165.77
2022-12-09T20:37:10.092Z,211.33
2022-12-09T20:39:38.703Z,113.33
2022-12-09T20:42:07.074Z,103.60
2022-12-09T20:44:35.397Z,212.13
2022-12-09T20:47:05.066Z,163.67
2022-12-09T20:49:33.380Z,251.20
2022-12-09T20:52:01.663Z,162.37
2022-12-09T20:54:29.967Z,288.97
2022-12-09T20:56:58.288Z,284.80
2022-12-09T20:59:26.674Z,220.40
2022-12-09T21:01:55.933Z,66.37
2022-12-09T21:04:25.698Z,207.83
2022-12-09T21:06:54.100Z,254.20
2022-12-09T21:09:26.997Z,226.60
2022-12-09T21:11:55.500Z,84.30
2022-12-09T21:14:28.116Z,330.37
2022-12-09T21:16:59.440Z,71.53
2022-12-09T21:19:32.346Z,303.93
2022-12-09T21:22:00.662Z,100.40
2022-12-09T21:24:29.014Z,320.87
2022-12-09T21:26:57.396Z,283.33
2022-12-09T21:29:31.738Z,130.83
2022-12-09T21:32:00.978Z,305.83
2022-12-09T21:34:30.945Z,324.67
2022-12-09T21:36:59.282Z,193.77
2022-12-09T21:39:29.222Z,378.80
2022-12-09T21:41:57.614Z,295.13
2022-12-09T21:44:27.064Z,308.50
2022-12-09T21:46:55.492Z,105.57
2022-12-09T21:49:23.875Z,96.53
2022-12-09T21:51:53.651Z,220.90
2022-12-09T21:54:21.980Z,212.70
2022-12-09T21:56:50.344Z,251.40
2022-12-09T21:59:18.670Z,242.67
2022-12-09T22:01:47.226Z,174.33
2022-12-09T22:04:17.159Z,136.50
2022-12-09T22:06:46.470Z,153.23
2022-12-09T22:09:16.270Z,143.23
2022-12-09T22:11:44.621Z,109.17
2022-12-09T22:14:12.934Z,188.47
2022-12-09T22:16:42.678Z,183.23
2022-12-09T22:19:13.626Z,49.47
2022-12-09T22:21:42.020Z,164.57
2022-12-09T22:24:12.896Z,108.30
2022-12-09T22:26:43.487Z,25.37
2022-12-09T22:29:12.987Z,162.03
2022-12-09T22:31:41.902Z,127.57
2022-12-09T22:34:12.045Z,161.37
2022-12-09T22:36:41.144Z,115.97
2022-12-09T22:39:10.839Z,123.00
2022-12-09T22:41:39.169Z,123.80
2022-12-09T22:44:08.795Z,99.10
2022-12-09T22:46:37.155Z,78.67
2022-12-09T22:49:07.202Z,96.90
2022-12-09T22:51:36.607Z,70.00
2022-12-09T22:54:05.930Z,73.77
2022-12-09T22:56:34.308Z,100.47
2022-12-09T22:59:02.593Z,88.07
2022-12-09T23:01:33.028Z,17.50
2022-12-09T23:04:01.950Z,80.90
2022-12-09T23:06:30.833Z,98.00
2022-12-09T23:08:59.575Z,47.10
2022-12-09T23:11:29.116Z,88.30
2022-12-09T23:13:57.450Z,87.87
2022-12-09T23:16:26.299Z,66.07
2022-12-09T23:18:57.317Z,56.13
2022-12-09T23:21:26.722Z,71.13
2022-12-09T23:23:55.660Z,99.73
2022-12-09T23:26:25.639Z,97.93
2022-12-09T23:28:54.825Z,80.23
2022-12-09T23:31:23.873Z,97.47
2022-12-09T23:33:52.891Z,94.20
2022-12-09T23:36:23.622Z,98.20
2022-12-09T23:38:52.873Z,81.37
2022-12-09T23:41:22.263Z,94.67
2022-12-09T23:43:51.244Z,100.57
2022-12-09T23:46:20.689Z,88.23
2022-12-09T23:48:49.798Z,99.10
2022-12-09T23:51:19.247Z,81.23
2022-12-09T23:53:49.578Z,103.23
2022-12-09T23:56:19.353Z,87.13
2022-12-09T23:58:48.071Z,53.90
